sensor_id;sensor_type;location;lat;lon;timestamp;P1;durP1;ratioP1;P2;durP2;ratioP2
67712;SDS011;54503;55.784;49.138;2022-08-03T00:02:35;23.70;;;12.18;;
67712;SDS011;54503;55.784;49.138;2022-08-03T00:07:41;25.72;;;13.08;;
67712;SDS011;54503;55.784;49.138;2022-08-03T00:12:46;25.15;;;13.10;;
67712;SDS011;54503;55.784;49.138;2022-08-03T00:18:04;23.32;;;12.80;;
67712;SDS011;54503;55.784;49.138;2022-08-03T00:23:09;25.20;;;12.68;;
67712;SDS011;54503;55.784;49.138;2022-08-03T00:28:27;27.07;;;13.28;;
67712;SDS011;54503;55.784;49.138;2022-08-03T00:33:32;24.65;;;13.65;;
67712;SDS011;54503;55.784;49.138;2022-08-03T00:38:54;30.43;;;13.83;;
67712;SDS011;54503;55.784;49.138;2022-08-03T00:44:13;28.50;;;14.00;;
67712;SDS011;54503;55.784;49.138;2022-08-03T00:54:56;23.40;;;12.95;;
67712;SDS011;54503;55.784;49.138;2022-08-03T01:00:01;28.00;;;12.97;;
67712;SDS011;54503;55.784;49.138;2022-08-03T01:05:24;31.53;;;14.17;;
67712;SDS011;54503;55.784;49.138;2022-08-03T01:22:06;25.07;;;13.30;;
67712;SDS011;54503;55.784;49.138;2022-08-03T01:43:34;23.87;;;13.27;;
67712;SDS011;54503;55.784;49.138;2022-08-03T01:48:41;31.55;;;12.95;;
67712;SDS011;54503;55.784;49.138;2022-08-03T01:54:01;22.42;;;12.45;;
67712;SDS011;54503;55.784;49.138;2022-08-03T01:59:07;20.23;;;12.43;;
67712;SDS011;54503;55.784;49.138;2022-08-03T02:04:16;22.85;;;12.35;;
67712;SDS011;54503;55.784;49.138;2022-08-03T02:09:25;25.43;;;12.33;;
67712;SDS011;54503;55.784;49.138;2022-08-03T02:14:45;22.05;;;11.97;;
67712;SDS011;54503;55.784;49.138;2022-08-03T02:19:51;22.00;;;11.53;;
67712;SDS011;54503;55.784;49.138;2022-08-03T02:25:24;20.90;;;11.00;;
67712;SDS011;54503;55.784;49.138;2022-08-03T02:30:30;20.23;;;11.12;;
67712;SDS011;54503;55.784;49.138;2022-08-03T02:35:49;17.47;;;10.53;;
67712;SDS011;54503;55.784;49.138;2022-08-03T02:46:56;17.45;;;10.00;;
67712;SDS011;54503;55.784;49.138;2022-08-03T02:52:02;16.73;;;10.20;;
67712;SDS011;54503;55.784;49.138;2022-08-03T02:57:09;18.20;;;9.80;;
67712;SDS011;54503;55.784;49.138;2022-08-03T03:02:24;16.25;;;10.23;;
67712;SDS011;54503;55.784;49.138;2022-08-03T03:07:52;21.33;;;10.23;;
67712;SDS011;54503;55.784;49.138;2022-08-03T03:12:59;17.60;;;9.80;;
67712;SDS011;54503;55.784;49.138;2022-08-03T03:18:07;20.92;;;10.23;;
67712;SDS011;54503;55.784;49.138;2022-08-03T03:23:24;18.92;;;10.13;;
67712;SDS011;54503;55.784;49.138;2022-08-03T03:28:33;18.10;;;10.13;;
67712;SDS011;54503;55.784;49.138;2022-08-03T03:39:00;20.82;;;11.12;;
67712;SDS011;54503;55.784;49.138;2022-08-03T03:44:04;26.40;;;10.48;;
67712;SDS011;54503;55.784;49.138;2022-08-03T03:49:25;25.48;;;12.93;;
67712;SDS011;54503;55.784;49.138;2022-08-03T03:59:56;17.82;;;10.30;;
67712;SDS011;54503;55.784;49.138;2022-08-03T04:05:14;22.98;;;10.48;;
67712;SDS011;54503;55.784;49.138;2022-08-03T04:10:39;18.77;;;11.07;;
67712;SDS011;54503;55.784;49.138;2022-08-03T04:16:05;18.85;;;10.63;;
67712;SDS011;54503;55.784;49.138;2022-08-03T04:21:11;20.43;;;10.75;;
67712;SDS011;54503;55.784;49.138;2022-08-03T04:26:17;21.40;;;10.50;;
67712;SDS011;54503;55.784;49.138;2022-08-03T04:31:24;20.88;;;10.35;;
67712;SDS011;54503;55.784;49.138;2022-08-03T04:36:44;22.42;;;11.10;;
67712;SDS011;54503;55.784;49.138;2022-08-03T04:41:50;20.43;;;10.70;;
67712;SDS011;54503;55.784;49.138;2022-08-03T04:46:56;20.27;;;9.40;;
67712;SDS011;54503;55.784;49.138;2022-08-03T04:52:02;20.82;;;9.35;;
67712;SDS011;54503;55.784;49.138;2022-08-03T04:57:39;20.37;;;10.03;;
67712;SDS011;54503;55.784;49.138;2022-08-03T05:02:45;24.85;;;10.15;;
67712;SDS011;54503;55.784;49.138;2022-08-03T05:07:51;18.02;;;10.85;;
67712;SDS011;54503;55.784;49.138;2022-08-03T05:13:09;17.20;;;10.00;;
67712;SDS011;54503;55.784;49.138;2022-08-03T05:18:15;39.03;;;11.10;;
67712;SDS011;54503;55.784;49.138;2022-08-03T05:23:46;15.53;;;8.73;;
67712;SDS011;54503;55.784;49.138;2022-08-03T05:29:05;15.80;;;8.30;;
67712;SDS011;54503;55.784;49.138;2022-08-03T05:34:10;22.37;;;8.93;;
67712;SDS011;54503;55.784;49.138;2022-08-03T05:39:30;36.17;;;9.20;;
67712;SDS011;54503;55.784;49.138;2022-08-03T05:44:35;21.82;;;9.03;;
67712;SDS011;54503;55.784;49.138;2022-08-03T05:49:55;35.30;;;9.80;;
67712;SDS011;54503;55.784;49.138;2022-08-03T05:54:59;20.35;;;8.30;;
67712;SDS011;54503;55.784;49.138;2022-08-03T06:00:19;19.10;;;9.23;;
67712;SDS011;54503;55.784;49.138;2022-08-03T06:05:39;16.47;;;8.00;;
67712;SDS011;54503;55.784;49.138;2022-08-03T06:10:44;14.47;;;8.38;;
67712;SDS011;54503;55.784;49.138;2022-08-03T06:16:02;18.15;;;8.68;;
67712;SDS011;54503;55.784;49.138;2022-08-03T06:21:07;36.25;;;16.55;;
67712;SDS011;54503;55.784;49.138;2022-08-03T06:26:26;16.13;;;8.07;;
67712;SDS011;54503;55.784;49.138;2022-08-03T06:31:45;14.70;;;7.45;;
67712;SDS011;54503;55.784;49.138;2022-08-03T06:37:04;20.32;;;7.53;;
67712;SDS011;54503;55.784;49.138;2022-08-03T06:42:10;41.33;;;10.00;;
67712;SDS011;54503;55.784;49.138;2022-08-03T06:47:16;17.37;;;7.20;;
67712;SDS011;54503;55.784;49.138;2022-08-03T06:52:50;15.53;;;7.72;;
67712;SDS011;54503;55.784;49.138;2022-08-03T06:57:55;22.05;;;8.30;;
67712;SDS011;54503;55.784;49.138;2022-08-03T07:03:01;14.30;;;7.87;;
67712;SDS011;54503;55.784;49.138;2022-08-03T07:08:32;8.87;;;4.77;;
67712;SDS011;54503;55.784;49.138;2022-08-03T07:13:38;20.25;;;7.50;;
67712;SDS011;54503;55.784;49.138;2022-08-03T07:18:44;11.05;;;5.12;;
67712;SDS011;54503;55.784;49.138;2022-08-03T07:23:48;13.77;;;5.77;;
67712;SDS011;54503;55.784;49.138;2022-08-03T07:29:08;27.27;;;6.20;;
67712;SDS011;54503;55.784;49.138;2022-08-03T07:34:27;10.43;;;4.87;;
67712;SDS011;54503;55.784;49.138;2022-08-03T07:39:32;16.00;;;5.07;;
67712;SDS011;54503;55.784;49.138;2022-08-03T07:44:38;10.58;;;4.28;;
67712;SDS011;54503;55.784;49.138;2022-08-03T07:49:58;9.58;;;4.47;;
67712;SDS011;54503;55.784;49.138;2022-08-03T07:55:04;11.10;;;4.70;;
67712;SDS011;54503;55.784;49.138;2022-08-03T08:00:23;14.70;;;4.57;;
67712;SDS011;54503;55.784;49.138;2022-08-03T08:05:42;10.20;;;4.50;;
67712;SDS011;54503;55.784;49.138;2022-08-03T08:11:01;14.78;;;4.50;;
67712;SDS011;54503;55.784;49.138;2022-08-03T08:16:06;14.07;;;4.60;;
67712;SDS011;54503;55.784;49.138;2022-08-03T08:21:25;7.57;;;4.40;;
67712;SDS011;54503;55.784;49.138;2022-08-03T08:26:44;16.00;;;4.70;;
67712;SDS011;54503;55.784;49.138;2022-08-03T08:32:14;6.50;;;3.58;;
67712;SDS011;54503;55.784;49.138;2022-08-03T08:37:19;7.45;;;3.75;;
67712;SDS011;54503;55.784;49.138;2022-08-03T08:47:59;11.53;;;3.57;;
67712;SDS011;54503;55.784;49.138;2022-08-03T08:53:06;11.78;;;4.85;;
67712;SDS011;54503;55.784;49.138;2022-08-03T08:58:40;7.60;;;4.12;;
67712;SDS011;54503;55.784;49.138;2022-08-03T09:03:46;9.10;;;3.60;;
67712;SDS011;54503;55.784;49.138;2022-08-03T09:09:26;8.13;;;3.70;;
67712;SDS011;54503;55.784;49.138;2022-08-03T09:14:31;7.73;;;3.80;;
67712;SDS011;54503;55.784;49.138;2022-08-03T09:20:03;5.50;;;3.03;;
67712;SDS011;54503;55.784;49.138;2022-08-03T09:25:10;6.08;;;3.15;;
67712;SDS011;54503;55.784;49.138;2022-08-03T09:30:16;6.55;;;3.37;;
67712;SDS011;54503;55.784;49.138;2022-08-03T09:35:25;12.63;;;3.87;;
67712;SDS011;54503;55.784;49.138;2022-08-03T09:40:54;6.10;;;3.83;;
67712;SDS011;54503;55.784;49.138;2022-08-03T09:51:39;20.85;;;3.35;;
67712;SDS011;54503;55.784;49.138;2022-08-03T09:56:45;9.13;;;2.98;;
67712;SDS011;54503;55.784;49.138;2022-08-03T10:02:04;11.03;;;3.13;;
67712;SDS011;54503;55.784;49.138;2022-08-03T10:07:23;115.82;;;9.55;;
67712;SDS011;54503;55.784;49.138;2022-08-03T10:12:43;15.75;;;3.20;;
67712;SDS011;54503;55.784;49.138;2022-08-03T10:17:49;8.80;;;2.87;;
67712;SDS011;54503;55.784;49.138;2022-08-03T10:22:55;17.85;;;4.35;;
67712;SDS011;54503;55.784;49.138;2022-08-03T10:28:01;9.50;;;3.40;;
67712;SDS011;54503;55.784;49.138;2022-08-03T10:33:21;10.63;;;3.00;;
67712;SDS011;54503;55.784;49.138;2022-08-03T10:44:27;13.10;;;3.30;;
67712;SDS011;54503;55.784;49.138;2022-08-03T10:49:34;10.38;;;3.08;;
67712;SDS011;54503;55.784;49.138;2022-08-03T10:54:40;8.33;;;2.83;;
67712;SDS011;54503;55.784;49.138;2022-08-03T11:00:05;6.40;;;2.90;;
67712;SDS011;54503;55.784;49.138;2022-08-03T11:05:25;7.93;;;2.80;;
67712;SDS011;54503;55.784;49.138;2022-08-03T11:10:31;8.88;;;3.02;;
67712;SDS011;54503;55.784;49.138;2022-08-03T11:15:37;7.65;;;2.98;;
67712;SDS011;54503;55.784;49.138;2022-08-03T11:21:07;14.05;;;3.75;;
67712;SDS011;54503;55.784;49.138;2022-08-03T11:31:52;8.43;;;2.85;;
67712;SDS011;54503;55.784;49.138;2022-08-03T11:42:37;9.58;;;3.15;;
67712;SDS011;54503;55.784;49.138;2022-08-03T11:47:56;4.40;;;2.62;;
67712;SDS011;54503;55.784;49.138;2022-08-03T11:53:04;5.97;;;2.63;;
67712;SDS011;54503;55.784;49.138;2022-08-03T12:03:54;14.03;;;2.90;;
67712;SDS011;54503;55.784;49.138;2022-08-03T12:09:22;4.70;;;2.27;;
67712;SDS011;54503;55.784;49.138;2022-08-03T12:14:28;10.05;;;2.70;;
67712;SDS011;54503;55.784;49.138;2022-08-03T12:41:51;7.20;;;2.00;;
67712;SDS011;54503;55.784;49.138;2022-08-03T12:46:56;5.28;;;2.08;;
67712;SDS011;54503;55.784;49.138;2022-08-03T12:52:27;4.62;;;2.27;;
67712;SDS011;54503;55.784;49.138;2022-08-03T13:03:13;7.57;;;2.33;;
67712;SDS011;54503;55.784;49.138;2022-08-03T13:13:57;5.58;;;1.90;;
67712;SDS011;54503;55.784;49.138;2022-08-03T13:19:02;7.97;;;1.80;;
67712;SDS011;54503;55.784;49.138;2022-08-03T13:29:45;4.80;;;1.60;;
67712;SDS011;54503;55.784;49.138;2022-08-03T13:34:50;5.90;;;1.95;;
67712;SDS011;54503;55.784;49.138;2022-08-03T13:39:58;9.13;;;2.10;;
67712;SDS011;54503;55.784;49.138;2022-08-03T13:45:17;9.47;;;2.00;;
67712;SDS011;54503;55.784;49.138;2022-08-03T13:50:37;20.50;;;3.75;;
67712;SDS011;54503;55.784;49.138;2022-08-03T13:55:56;9.10;;;2.37;;
67712;SDS011;54503;55.784;49.138;2022-08-03T14:01:00;4.97;;;2.00;;
67712;SDS011;54503;55.784;49.138;2022-08-03T14:06:10;5.50;;;1.97;;
67712;SDS011;54503;55.784;49.138;2022-08-03T14:11:29;7.03;;;2.05;;
67712;SDS011;54503;55.784;49.138;2022-08-03T14:16:48;18.05;;;3.20;;
67712;SDS011;54503;55.784;49.138;2022-08-03T14:21:52;4.90;;;1.90;;
67712;SDS011;54503;55.784;49.138;2022-08-03T14:27:39;6.78;;;1.70;;
67712;SDS011;54503;55.784;49.138;2022-08-03T14:32:44;7.57;;;2.07;;
67712;SDS011;54503;55.784;49.138;2022-08-03T14:38:03;5.60;;;2.10;;
67712;SDS011;54503;55.784;49.138;2022-08-03T14:43:08;20.65;;;2.67;;
67712;SDS011;54503;55.784;49.138;2022-08-03T14:48:27;5.70;;;2.00;;
67712;SDS011;54503;55.784;49.138;2022-08-03T14:53:56;6.27;;;1.90;;
67712;SDS011;54503;55.784;49.138;2022-08-03T14:59:01;8.68;;;2.75;;
67712;SDS011;54503;55.784;49.138;2022-08-03T15:04:07;7.75;;;2.00;;
67712;SDS011;54503;55.784;49.138;2022-08-03T15:09:27;5.60;;;1.92;;
67712;SDS011;54503;55.784;49.138;2022-08-03T15:14:32;6.77;;;2.23;;
67712;SDS011;54503;55.784;49.138;2022-08-03T15:19:51;4.20;;;2.10;;
67712;SDS011;54503;55.784;49.138;2022-08-03T15:25:11;6.03;;;2.40;;
67712;SDS011;54503;55.784;49.138;2022-08-03T15:30:32;9.48;;;2.40;;
67712;SDS011;54503;55.784;49.138;2022-08-03T15:36:02;5.50;;;2.60;;
67712;SDS011;54503;55.784;49.138;2022-08-03T15:41:08;7.95;;;3.60;;
67712;SDS011;54503;55.784;49.138;2022-08-03T15:46:27;8.03;;;2.85;;
67712;SDS011;54503;55.784;49.138;2022-08-03T15:51:32;10.25;;;3.05;;
67712;SDS011;54503;55.784;49.138;2022-08-03T15:56:51;8.55;;;2.90;;
67712;SDS011;54503;55.784;49.138;2022-08-03T16:02:10;9.80;;;2.50;;
67712;SDS011;54503;55.784;49.138;2022-08-03T16:07:15;6.22;;;2.50;;
67712;SDS011;54503;55.784;49.138;2022-08-03T16:12:41;9.33;;;2.58;;
67712;SDS011;54503;55.784;49.138;2022-08-03T16:17:48;8.43;;;2.73;;
67712;SDS011;54503;55.784;49.138;2022-08-03T16:22:54;9.73;;;2.70;;
67712;SDS011;54503;55.784;49.138;2022-08-03T16:27:59;9.20;;;2.92;;
67712;SDS011;54503;55.784;49.138;2022-08-03T16:33:04;7.90;;;2.67;;
67712;SDS011;54503;55.784;49.138;2022-08-03T16:38:32;8.10;;;2.50;;
67712;SDS011;54503;55.784;49.138;2022-08-03T16:43:38;9.08;;;2.50;;
67712;SDS011;54503;55.784;49.138;2022-08-03T16:54:17;10.70;;;2.63;;
67712;SDS011;54503;55.784;49.138;2022-08-03T16:59:49;9.43;;;2.80;;
67712;SDS011;54503;55.784;49.138;2022-08-03T17:04:56;12.40;;;2.75;;
67712;SDS011;54503;55.784;49.138;2022-08-03T17:10:14;8.28;;;2.60;;
67712;SDS011;54503;55.784;49.138;2022-08-03T17:15:20;13.25;;;2.90;;
67712;SDS011;54503;55.784;49.138;2022-08-03T17:20:26;15.03;;;2.93;;
67712;SDS011;54503;55.784;49.138;2022-08-03T17:25:34;10.80;;;3.52;;
67712;SDS011;54503;55.784;49.138;2022-08-03T17:30:53;8.03;;;2.77;;
67712;SDS011;54503;55.784;49.138;2022-08-03T17:36:12;11.73;;;3.75;;
67712;SDS011;54503;55.784;49.138;2022-08-03T17:41:35;11.17;;;3.40;;
67712;SDS011;54503;55.784;49.138;2022-08-03T17:46:40;14.40;;;3.62;;
67712;SDS011;54503;55.784;49.138;2022-08-03T18:08:33;12.28;;;3.95;;
67712;SDS011;54503;55.784;49.138;2022-08-03T18:14:06;13.45;;;4.53;;
67712;SDS011;54503;55.784;49.138;2022-08-03T18:19:26;14.55;;;4.72;;
67712;SDS011;54503;55.784;49.138;2022-08-03T18:24:31;13.50;;;4.83;;
67712;SDS011;54503;55.784;49.138;2022-08-03T18:30:27;17.93;;;4.90;;
67712;SDS011;54503;55.784;49.138;2022-08-03T18:35:17;12.37;;;4.75;;
67712;SDS011;54503;55.784;49.138;2022-08-03T18:40:37;14.05;;;5.20;;
67712;SDS011;54503;55.784;49.138;2022-08-03T18:45:56;14.25;;;4.80;;
67712;SDS011;54503;55.784;49.138;2022-08-03T18:51:17;11.68;;;5.17;;
67712;SDS011;54503;55.784;49.138;2022-08-03T19:18:36;12.90;;;4.85;;
67712;SDS011;54503;55.784;49.138;2022-08-03T19:29:35;9.53;;;5.53;;
67712;SDS011;54503;55.784;49.138;2022-08-03T19:34:58;10.72;;;5.65;;
67712;SDS011;54503;55.784;49.138;2022-08-03T19:40:17;16.50;;;5.80;;
67712;SDS011;54503;55.784;49.138;2022-08-03T19:45:25;11.33;;;5.60;;
67712;SDS011;54503;55.784;49.138;2022-08-03T19:50:29;13.73;;;5.50;;
67712;SDS011;54503;55.784;49.138;2022-08-03T19:55:48;12.40;;;5.70;;
67712;SDS011;54503;55.784;49.138;2022-08-03T20:01:09;14.30;;;5.60;;
67712;SDS011;54503;55.784;49.138;2022-08-03T20:06:28;10.37;;;5.13;;
67712;SDS011;54503;55.784;49.138;2022-08-03T20:11:33;14.70;;;5.40;;
67712;SDS011;54503;55.784;49.138;2022-08-03T20:16:42;8.25;;;4.90;;
67712;SDS011;54503;55.784;49.138;2022-08-03T20:22:04;9.20;;;5.23;;
67712;SDS011;54503;55.784;49.138;2022-08-03T20:27:24;11.68;;;5.35;;
67712;SDS011;54503;55.784;49.138;2022-08-03T20:32:44;11.35;;;5.80;;
67712;SDS011;54503;55.784;49.138;2022-08-03T20:37:49;15.50;;;6.40;;
67712;SDS011;54503;55.784;49.138;2022-08-03T20:43:08;13.15;;;6.05;;
67712;SDS011;54503;55.784;49.138;2022-08-03T20:48:27;13.00;;;6.92;;
67712;SDS011;54503;55.784;49.138;2022-08-03T20:53:46;20.57;;;6.57;;
67712;SDS011;54503;55.784;49.138;2022-08-03T20:59:05;12.65;;;6.40;;
67712;SDS011;54503;55.784;49.138;2022-08-03T21:04:11;17.27;;;7.10;;
67712;SDS011;54503;55.784;49.138;2022-08-03T21:09:18;16.00;;;6.80;;
67712;SDS011;54503;55.784;49.138;2022-08-03T21:14:42;13.27;;;7.70;;
67712;SDS011;54503;55.784;49.138;2022-08-03T21:19:48;17.20;;;7.85;;
67712;SDS011;54503;55.784;49.138;2022-08-03T21:24:54;14.87;;;8.10;;
67712;SDS011;54503;55.784;49.138;2022-08-03T21:30:00;15.10;;;8.20;;
67712;SDS011;54503;55.784;49.138;2022-08-03T21:35:20;16.03;;;7.60;;
67712;SDS011;54503;55.784;49.138;2022-08-03T21:40:26;16.07;;;8.10;;
67712;SDS011;54503;55.784;49.138;2022-08-03T21:50:56;15.77;;;7.67;;
67712;SDS011;54503;55.784;49.138;2022-08-03T22:01:41;13.00;;;7.25;;
67712;SDS011;54503;55.784;49.138;2022-08-03T22:06:48;18.30;;;7.77;;
67712;SDS011;54503;55.784;49.138;2022-08-03T22:17:42;14.05;;;7.95;;
67712;SDS011;54503;55.784;49.138;2022-08-03T22:23:03;14.13;;;7.87;;
67712;SDS011;54503;55.784;49.138;2022-08-03T22:28:34;16.63;;;8.27;;
67712;SDS011;54503;55.784;49.138;2022-08-03T22:33:41;18.80;;;8.30;;
67712;SDS011;54503;55.784;49.138;2022-08-03T22:39:05;15.55;;;7.53;;
67712;SDS011;54503;55.784;49.138;2022-08-03T22:44:10;17.23;;;7.63;;
67712;SDS011;54503;55.784;49.138;2022-08-03T22:49:16;17.48;;;7.75;;
67712;SDS011;54503;55.784;49.138;2022-08-03T22:54:36;14.95;;;7.95;;
67712;SDS011;54503;55.784;49.138;2022-08-03T23:05:33;13.95;;;8.60;;
67712;SDS011;54503;55.784;49.138;2022-08-03T23:10:39;13.20;;;8.43;;
67712;SDS011;54503;55.784;49.138;2022-08-03T23:15:59;18.60;;;8.87;;
67712;SDS011;54503;55.784;49.138;2022-08-03T23:21:19;16.87;;;8.70;;
67712;SDS011;54503;55.784;49.138;2022-08-03T23:26:25;24.43;;;9.30;;
67712;SDS011;54503;55.784;49.138;2022-08-03T23:31:44;15.20;;;8.93;;
67712;SDS011;54503;55.784;49.138;2022-08-03T23:36:50;16.70;;;8.70;;
67712;SDS011;54503;55.784;49.138;2022-08-03T23:41:57;19.37;;;9.30;;
67712;SDS011;54503;55.784;49.138;2022-08-03T23:47:16;18.20;;;9.05;;
67712;SDS011;54503;55.784;49.138;2022-08-03T23:52:27;22.17;;;9.50;;
